Back to top

Douglas, WY weather

Converse County Airport, Douglas, WY: 1/20/2020 04:53
Visibility10 statute milesclear sky
View 7-Day Forecast
Area Summary
Sky/CloudsSky Clear
Weather [last 24 hours]None
Pressure30.34 in.Hg (1028 hPa)
3-hour Pressure Tendency0.005905 in.Hg (0.2 hPa) Steady or increasing, then decreasing; or decreasing then decreasing more rapidly
Dew Point6.1 °F (-14.4 °C)
Relative Humidity76.5 %
Temperature12 °F (-11.1 °C)blue thermometer
Reading TimeMinimum to Maximum Temperature
6-hr ending 1/20@04:537 °F to 19 °F (-13.9 °C to -7.2 °C)
6-hr ending 1/19@22:5315.1 °F to 35.1 °F (-9.4 °C to 1.7 °C)
6-hr ending 1/19@16:5335.1 °F to 44.1 °F (1.7 °C to 6.7 °C)
6-hr ending 1/19@10:5317.1 °F to 39 °F (-8.3 °C to 3.9 °C)
24-hr ending 1/19@23:5312.9 °F to 44.1 °F (-10.6 °C to 6.7 °C)
Wind0 MPH (0 KT) green arrow pointing at 0 degrees
Wind FromNorth (000 Degrees)
Twilight Begins06:54Sunshine Yesterday
Sunrise07:24N/A
Sunset17:01
Twilight Ends17:32
RemarksI1000, I6000
METARKDGW 201153Z AUTO 00000KT 10SM CLR M11/M14 A3034 RMK AO2 SLP321 I1000 I6000 T11111144 11072 21139 58002
Tags: